sensor_id;sensor_type;location;lat;lon;timestamp;temperature;humidity
45803;DHT22;31504;51.716;9.184;2023-09-30T00:02:38;20.90;70.30
45803;DHT22;31504;51.716;9.184;2023-09-30T00:05:39;20.90;70.20
45803;DHT22;31504;51.716;9.184;2023-09-30T00:08:39;20.90;70.20
45803;DHT22;31504;51.716;9.184;2023-09-30T00:11:42;20.90;69.50
45803;DHT22;31504;51.716;9.184;2023-09-30T00:14:42;20.90;69.90
45803;DHT22;31504;51.716;9.184;2023-09-30T00:17:43;20.90;70.10
45803;DHT22;31504;51.716;9.184;2023-09-30T00:20:44;20.90;69.80
45803;DHT22;31504;51.716;9.184;2023-09-30T00:23:44;20.90;70.10
45803;DHT22;31504;51.716;9.184;2023-09-30T00:26:44;20.90;70.20
45803;DHT22;31504;51.716;9.184;2023-09-30T00:29:46;20.90;70.20
45803;DHT22;31504;51.716;9.184;2023-09-30T00:32:46;20.90;70.20
45803;DHT22;31504;51.716;9.184;2023-09-30T00:35:47;20.90;70.20
45803;DHT22;31504;51.716;9.184;2023-09-30T00:38:47;20.90;70.20
45803;DHT22;31504;51.716;9.184;2023-09-30T00:41:48;20.90;70.30
45803;DHT22;31504;51.716;9.184;2023-09-30T00:44:48;20.90;70.20
45803;DHT22;31504;51.716;9.184;2023-09-30T00:47:49;20.80;70.10
45803;DHT22;31504;51.716;9.184;2023-09-30T00:50:49;20.90;70.10
45803;DHT22;31504;51.716;9.184;2023-09-30T00:53:50;20.90;70.10
45803;DHT22;31504;51.716;9.184;2023-09-30T00:56:52;20.90;70.10
45803;DHT22;31504;51.716;9.184;2023-09-30T00:59:53;20.80;70.10
45803;DHT22;31504;51.716;9.184;2023-09-30T01:02:53;20.80;70.00
45803;DHT22;31504;51.716;9.184;2023-09-30T01:05:54;20.80;70.10
45803;DHT22;31504;51.716;9.184;2023-09-30T01:08:54;20.80;70.10
45803;DHT22;31504;51.716;9.184;2023-09-30T01:11:55;20.80;70.10
45803;DHT22;31504;51.716;9.184;2023-09-30T01:14:58;20.80;70.10
45803;DHT22;31504;51.716;9.184;2023-09-30T01:18:00;20.80;70.00
45803;DHT22;31504;51.716;9.184;2023-09-30T01:21:02;20.80;70.00
45803;DHT22;31504;51.716;9.184;2023-09-30T01:24:03;20.80;70.00
45803;DHT22;31504;51.716;9.184;2023-09-30T01:27:05;20.80;70.00
45803;DHT22;31504;51.716;9.184;2023-09-30T01:30:05;20.80;70.00
45803;DHT22;31504;51.716;9.184;2023-09-30T01:33:06;20.80;70.00
45803;DHT22;31504;51.716;9.184;2023-09-30T01:36:08;20.80;70.00
45803;DHT22;31504;51.716;9.184;2023-09-30T01:39:11;20.80;70.00
45803;DHT22;31504;51.716;9.184;2023-09-30T01:42:12;20.80;70.00
45803;DHT22;31504;51.716;9.184;2023-09-30T01:45:12;20.80;69.90
45803;DHT22;31504;51.716;9.184;2023-09-30T01:48:13;20.80;69.90
45803;DHT22;31504;51.716;9.184;2023-09-30T01:51:14;20.70;69.80
45803;DHT22;31504;51.716;9.184;2023-09-30T01:54:14;20.80;69.90
45803;DHT22;31504;51.716;9.184;2023-09-30T01:57:15;20.80;69.90
45803;DHT22;31504;51.716;9.184;2023-09-30T02:00:15;20.80;69.90
45803;DHT22;31504;51.716;9.184;2023-09-30T02:03:17;20.70;69.80
45803;DHT22;31504;51.716;9.184;2023-09-30T02:06:18;20.80;69.90
45803;DHT22;31504;51.716;9.184;2023-09-30T02:09:18;20.80;69.80
45803;DHT22;31504;51.716;9.184;2023-09-30T02:12:18;20.70;69.80
45803;DHT22;31504;51.716;9.184;2023-09-30T02:15:19;20.80;69.80
45803;DHT22;31504;51.716;9.184;2023-09-30T02:18:19;20.80;69.80
45803;DHT22;31504;51.716;9.184;2023-09-30T02:21:20;20.70;69.70
45803;DHT22;31504;51.716;9.184;2023-09-30T02:24:22;20.70;69.70
45803;DHT22;31504;51.716;9.184;2023-09-30T02:27:23;20.70;69.70
45803;DHT22;31504;51.716;9.184;2023-09-30T02:30:23;20.70;69.60
45803;DHT22;31504;51.716;9.184;2023-09-30T02:33:24;20.80;69.70
45803;DHT22;31504;51.716;9.184;2023-09-30T02:36:26;20.70;69.60
45803;DHT22;31504;51.716;9.184;2023-09-30T02:39:27;20.70;69.60
45803;DHT22;31504;51.716;9.184;2023-09-30T02:42:29;20.70;69.60
45803;DHT22;31504;51.716;9.184;2023-09-30T02:45:29;20.70;69.50
45803;DHT22;31504;51.716;9.184;2023-09-30T02:48:30;20.70;69.60
45803;DHT22;31504;51.716;9.184;2023-09-30T02:51:30;20.70;69.50
45803;DHT22;31504;51.716;9.184;2023-09-30T02:54:32;20.70;69.60
45803;DHT22;31504;51.716;9.184;2023-09-30T02:57:33;20.70;69.50
45803;DHT22;31504;51.716;9.184;2023-09-30T03:00:35;20.70;69.50
45803;DHT22;31504;51.716;9.184;2023-09-30T03:03:37;20.70;69.50
45803;DHT22;31504;51.716;9.184;2023-09-30T03:06:38;20.70;69.40
45803;DHT22;31504;51.716;9.184;2023-09-30T03:09:39;20.70;69.50
45803;DHT22;31504;51.716;9.184;2023-09-30T03:12:40;20.70;69.50
45803;DHT22;31504;51.716;9.184;2023-09-30T03:15:40;20.70;69.40
45803;DHT22;31504;51.716;9.184;2023-09-30T03:18:41;20.70;69.40
45803;DHT22;31504;51.716;9.184;2023-09-30T03:21:41;20.70;69.40
45803;DHT22;31504;51.716;9.184;2023-09-30T03:24:41;20.70;69.40
45803;DHT22;31504;51.716;9.184;2023-09-30T03:27:47;20.70;69.40
45803;DHT22;31504;51.716;9.184;2023-09-30T03:30:47;20.70;69.30
45803;DHT22;31504;51.716;9.184;2023-09-30T03:33:49;20.70;69.30
45803;DHT22;31504;51.716;9.184;2023-09-30T03:36:51;20.70;69.30
45803;DHT22;31504;51.716;9.184;2023-09-30T03:39:55;20.70;69.30
45803;DHT22;31504;51.716;9.184;2023-09-30T03:42:55;20.70;69.30
45803;DHT22;31504;51.716;9.184;2023-09-30T03:45:56;20.70;69.30
45803;DHT22;31504;51.716;9.184;2023-09-30T03:48:57;20.70;69.20
45803;DHT22;31504;51.716;9.184;2023-09-30T03:51:59;20.60;69.10
45803;DHT22;31504;51.716;9.184;2023-09-30T03:55:01;20.60;69.10
45803;DHT22;31504;51.716;9.184;2023-09-30T03:58:05;20.60;69.10
45803;DHT22;31504;51.716;9.184;2023-09-30T04:01:06;20.60;69.10
45803;DHT22;31504;51.716;9.184;2023-09-30T04:04:07;20.60;69.10
45803;DHT22;31504;51.716;9.184;2023-09-30T04:07:10;20.60;69.10
45803;DHT22;31504;51.716;9.184;2023-09-30T04:10:10;20.60;69.00
45803;DHT22;31504;51.716;9.184;2023-09-30T04:13:11;20.60;69.00
45803;DHT22;31504;51.716;9.184;2023-09-30T04:16:12;20.60;69.00
45803;DHT22;31504;51.716;9.184;2023-09-30T04:19:13;20.60;69.00
45803;DHT22;31504;51.716;9.184;2023-09-30T04:22:14;20.60;66.90
45803;DHT22;31504;51.716;9.184;2023-09-30T04:25:16;20.60;67.70
45803;DHT22;31504;51.716;9.184;2023-09-30T04:28:17;20.70;68.30
45803;DHT22;31504;51.716;9.184;2023-09-30T04:31:20;20.60;68.40
45803;DHT22;31504;51.716;9.184;2023-09-30T04:34:24;20.70;68.50
45803;DHT22;31504;51.716;9.184;2023-09-30T04:37:24;20.70;68.50
45803;DHT22;31504;51.716;9.184;2023-09-30T04:40:25;20.60;68.40
45803;DHT22;31504;51.716;9.184;2023-09-30T04:43:26;20.60;68.10
45803;DHT22;31504;51.716;9.184;2023-09-30T04:46:29;20.60;68.10
45803;DHT22;31504;51.716;9.184;2023-09-30T04:49:30;20.60;68.30
45803;DHT22;31504;51.716;9.184;2023-09-30T04:52:31;20.60;68.30
45803;DHT22;31504;51.716;9.184;2023-09-30T04:55:31;20.60;68.10
45803;DHT22;31504;51.716;9.184;2023-09-30T04:58:32;20.60;68.30
45803;DHT22;31504;51.716;9.184;2023-09-30T05:01:32;20.60;68.10
45803;DHT22;31504;51.716;9.184;2023-09-30T05:04:33;20.60;67.40
45803;DHT22;31504;51.716;9.184;2023-09-30T05:07:33;20.60;67.80
45803;DHT22;31504;51.716;9.184;2023-09-30T05:10:34;20.60;68.10
45803;DHT22;31504;51.716;9.184;2023-09-30T05:13:34;20.60;68.20
45803;DHT22;31504;51.716;9.184;2023-09-30T05:16:34;20.60;68.10
45803;DHT22;31504;51.716;9.184;2023-09-30T05:19:35;20.60;65.90
45803;DHT22;31504;51.716;9.184;2023-09-30T05:22:38;20.60;67.90
45803;DHT22;31504;51.716;9.184;2023-09-30T05:25:39;20.60;66.60
45803;DHT22;31504;51.716;9.184;2023-09-30T05:28:40;20.60;67.60
45803;DHT22;31504;51.716;9.184;2023-09-30T05:31:40;20.60;67.70
45803;DHT22;31504;51.716;9.184;2023-09-30T05:34:41;20.60;68.10
45803;DHT22;31504;51.716;9.184;2023-09-30T05:37:41;20.60;67.50
45803;DHT22;31504;51.716;9.184;2023-09-30T05:40:42;20.50;68.50
45803;DHT22;31504;51.716;9.184;2023-09-30T05:43:43;20.60;67.90
45803;DHT22;31504;51.716;9.184;2023-09-30T05:46:43;20.50;68.00
45803;DHT22;31504;51.716;9.184;2023-09-30T05:49:45;20.50;68.00
45803;DHT22;31504;51.716;9.184;2023-09-30T05:52:46;20.50;68.00
45803;DHT22;31504;51.716;9.184;2023-09-30T05:55:46;20.50;68.00
45803;DHT22;31504;51.716;9.184;2023-09-30T05:58:47;20.50;68.00
45803;DHT22;31504;51.716;9.184;2023-09-30T06:01:47;20.50;61.00
45803;DHT22;31504;51.716;9.184;2023-09-30T06:04:47;20.40;61.20
45803;DHT22;31504;51.716;9.184;2023-09-30T06:07:49;20.40;61.60
45803;DHT22;31504;51.716;9.184;2023-09-30T06:10:50;20.20;59.60
45803;DHT22;31504;51.716;9.184;2023-09-30T06:13:51;19.90;59.20
45803;DHT22;31504;51.716;9.184;2023-09-30T06:16:53;19.80;68.10
45803;DHT22;31504;51.716;9.184;2023-09-30T06:19:53;20.10;63.90
45803;DHT22;31504;51.716;9.184;2023-09-30T06:22:54;20.20;60.80
45803;DHT22;31504;51.716;9.184;2023-09-30T06:25:54;20.20;60.10
45803;DHT22;31504;51.716;9.184;2023-09-30T06:28:55;20.20;60.20
45803;DHT22;31504;51.716;9.184;2023-09-30T06:31:56;20.20;60.30
45803;DHT22;31504;51.716;9.184;2023-09-30T06:34:56;20.20;60.30
45803;DHT22;31504;51.716;9.184;2023-09-30T06:37:57;20.30;60.30
45803;DHT22;31504;51.716;9.184;2023-09-30T06:40:57;20.30;60.30
45803;DHT22;31504;51.716;9.184;2023-09-30T06:43:58;20.30;60.20
45803;DHT22;31504;51.716;9.184;2023-09-30T06:46:59;20.30;60.20
45803;DHT22;31504;51.716;9.184;2023-09-30T06:50:01;20.30;60.10
45803;DHT22;31504;51.716;9.184;2023-09-30T06:53:07;20.30;60.10
45803;DHT22;31504;51.716;9.184;2023-09-30T06:56:09;20.30;60.10
45803;DHT22;31504;51.716;9.184;2023-09-30T06:59:10;20.30;60.10
45803;DHT22;31504;51.716;9.184;2023-09-30T07:02:10;20.30;60.20
45803;DHT22;31504;51.716;9.184;2023-09-30T07:05:12;20.30;60.20
45803;DHT22;31504;51.716;9.184;2023-09-30T07:08:13;20.30;64.50
45803;DHT22;31504;51.716;9.184;2023-09-30T07:11:13;20.40;65.90
45803;DHT22;31504;51.716;9.184;2023-09-30T07:14:13;20.40;66.10
45803;DHT22;31504;51.716;9.184;2023-09-30T07:17:14;20.40;66.20
45803;DHT22;31504;51.716;9.184;2023-09-30T07:20:15;20.40;66.30
45803;DHT22;31504;51.716;9.184;2023-09-30T07:23:15;20.40;66.40
45803;DHT22;31504;51.716;9.184;2023-09-30T07:26:18;20.40;66.40
45803;DHT22;31504;51.716;9.184;2023-09-30T07:29:23;20.30;66.40
45803;DHT22;31504;51.716;9.184;2023-09-30T07:32:23;20.30;66.40
45803;DHT22;31504;51.716;9.184;2023-09-30T07:35:23;20.40;66.50
45803;DHT22;31504;51.716;9.184;2023-09-30T07:38:24;20.40;66.50
45803;DHT22;31504;51.716;9.184;2023-09-30T07:41:24;20.40;66.50
45803;DHT22;31504;51.716;9.184;2023-09-30T07:44:25;20.40;66.60
45803;DHT22;31504;51.716;9.184;2023-09-30T07:47:25;20.40;66.50
45803;DHT22;31504;51.716;9.184;2023-09-30T07:50:26;20.30;66.50
45803;DHT22;31504;51.716;9.184;2023-09-30T07:53:27;20.40;66.50
45803;DHT22;31504;51.716;9.184;2023-09-30T07:56:27;20.30;66.50
45803;DHT22;31504;51.716;9.184;2023-09-30T07:59:27;20.30;65.60
45803;DHT22;31504;51.716;9.184;2023-09-30T08:02:28;20.30;62.60
45803;DHT22;31504;51.716;9.184;2023-09-30T08:05:33;20.30;62.50
45803;DHT22;31504;51.716;9.184;2023-09-30T08:08:33;20.20;62.60
45803;DHT22;31504;51.716;9.184;2023-09-30T08:11:34;20.10;62.90
45803;DHT22;31504;51.716;9.184;2023-09-30T08:14:34;20.10;63.10
45803;DHT22;31504;51.716;9.184;2023-09-30T08:17:35;20.00;63.10
45803;DHT22;31504;51.716;9.184;2023-09-30T08:20:36;20.00;63.20
45803;DHT22;31504;51.716;9.184;2023-09-30T08:23:37;20.00;63.40
45803;DHT22;31504;51.716;9.184;2023-09-30T08:26:39;19.90;63.50
45803;DHT22;31504;51.716;9.184;2023-09-30T08:29:39;20.00;63.60
45803;DHT22;31504;51.716;9.184;2023-09-30T08:32:40;19.90;63.60
45803;DHT22;31504;51.716;9.184;2023-09-30T08:35:41;20.00;63.80
45803;DHT22;31504;51.716;9.184;2023-09-30T08:38:42;20.00;64.00
45803;DHT22;31504;51.716;9.184;2023-09-30T08:41:42;20.00;63.90
45803;DHT22;31504;51.716;9.184;2023-09-30T08:44:45;20.00;63.90
45803;DHT22;31504;51.716;9.184;2023-09-30T08:47:46;20.00;64.10
45803;DHT22;31504;51.716;9.184;2023-09-30T08:50:47;20.00;64.30
45803;DHT22;31504;51.716;9.184;2023-09-30T08:53:50;20.10;64.60
45803;DHT22;31504;51.716;9.184;2023-09-30T08:56:51;20.00;64.80
45803;DHT22;31504;51.716;9.184;2023-09-30T08:59:52;20.00;64.80
45803;DHT22;31504;51.716;9.184;2023-09-30T09:02:53;20.10;65.00
45803;DHT22;31504;51.716;9.184;2023-09-30T09:05:56;20.10;65.20
45803;DHT22;31504;51.716;9.184;2023-09-30T09:09:12;20.10;65.70
45803;DHT22;31504;51.716;9.184;2023-09-30T09:12:21;20.20;65.70
45803;DHT22;31504;51.716;9.184;2023-09-30T09:15:23;20.30;66.40
45803;DHT22;31504;51.716;9.184;2023-09-30T09:18:32;20.30;65.80
45803;DHT22;31504;51.716;9.184;2023-09-30T09:21:55;20.30;65.80
45803;DHT22;31504;51.716;9.184;2023-09-30T09:24:57;20.30;65.90
45803;DHT22;31504;51.716;9.184;2023-09-30T09:27:59;20.30;65.80
45803;DHT22;31504;51.716;9.184;2023-09-30T09:31:01;20.30;65.90
45803;DHT22;31504;51.716;9.184;2023-09-30T09:34:02;20.30;64.90
45803;DHT22;31504;51.716;9.184;2023-09-30T09:37:16;20.30;64.90
45803;DHT22;31504;51.716;9.184;2023-09-30T09:40:17;20.30;64.70
45803;DHT22;31504;51.716;9.184;2023-09-30T09:43:22;20.40;64.60
45803;DHT22;31504;51.716;9.184;2023-09-30T09:46:25;20.40;64.50
45803;DHT22;31504;51.716;9.184;2023-09-30T09:49:27;20.40;64.30
45803;DHT22;31504;51.716;9.184;2023-09-30T09:52:29;20.40;64.60
45803;DHT22;31504;51.716;9.184;2023-09-30T09:55:30;20.40;64.10
45803;DHT22;31504;51.716;9.184;2023-09-30T09:58:31;20.40;64.10
45803;DHT22;31504;51.716;9.184;2023-09-30T10:01:34;20.40;63.30
45803;DHT22;31504;51.716;9.184;2023-09-30T10:04:36;20.30;63.80
45803;DHT22;31504;51.716;9.184;2023-09-30T10:07:37;20.30;63.50
45803;DHT22;31504;51.716;9.184;2023-09-30T10:10:38;20.30;63.80
45803;DHT22;31504;51.716;9.184;2023-09-30T10:17:04;20.40;64.10
45803;DHT22;31504;51.716;9.184;2023-09-30T10:20:06;20.40;63.60
45803;DHT22;31504;51.716;9.184;2023-09-30T10:26:19;20.50;63.60
45803;DHT22;31504;51.716;9.184;2023-09-30T10:29:20;20.50;63.50
45803;DHT22;31504;51.716;9.184;2023-09-30T10:32:21;20.50;63.60
45803;DHT22;31504;51.716;9.184;2023-09-30T10:44:49;20.50;63.00
45803;DHT22;31504;51.716;9.184;2023-09-30T10:47:50;20.50;62.80
45803;DHT22;31504;51.716;9.184;2023-09-30T10:53:51;20.50;62.80
45803;DHT22;31504;51.716;9.184;2023-09-30T10:56:53;20.60;62.90
45803;DHT22;31504;51.716;9.184;2023-09-30T11:00:12;20.50;64.10
45803;DHT22;31504;51.716;9.184;2023-09-30T11:03:14;20.50;63.10
45803;DHT22;31504;51.716;9.184;2023-09-30T11:06:15;20.50;62.80
45803;DHT22;31504;51.716;9.184;2023-09-30T11:09:21;20.60;62.50
45803;DHT22;31504;51.716;9.184;2023-09-30T11:12:21;20.60;62.50
45803;DHT22;31504;51.716;9.184;2023-09-30T11:15:22;20.60;62.50
45803;DHT22;31504;51.716;9.184;2023-09-30T11:18:23;20.60;62.50
45803;DHT22;31504;51.716;9.184;2023-09-30T11:21:23;20.60;62.50
45803;DHT22;31504;51.716;9.184;2023-09-30T11:24:25;20.60;62.30
45803;DHT22;31504;51.716;9.184;2023-09-30T11:27:25;20.60;62.40
45803;DHT22;31504;51.716;9.184;2023-09-30T11:30:26;20.60;62.30
45803;DHT22;31504;51.716;9.184;2023-09-30T11:33:27;20.60;62.30
45803;DHT22;31504;51.716;9.184;2023-09-30T11:36:27;20.60;62.30
45803;DHT22;31504;51.716;9.184;2023-09-30T11:39:28;20.60;62.20
45803;DHT22;31504;51.716;9.184;2023-09-30T11:42:29;20.60;62.00
45803;DHT22;31504;51.716;9.184;2023-09-30T11:45:31;20.60;61.10
45803;DHT22;31504;51.716;9.184;2023-09-30T11:48:31;20.60;61.00
45803;DHT22;31504;51.716;9.184;2023-09-30T11:51:42;20.60;60.90
45803;DHT22;31504;51.716;9.184;2023-09-30T11:54:44;20.60;60.70
45803;DHT22;31504;51.716;9.184;2023-09-30T11:57:45;20.60;60.30
45803;DHT22;31504;51.716;9.184;2023-09-30T12:00:45;20.60;60.20
45803;DHT22;31504;51.716;9.184;2023-09-30T12:03:46;20.60;59.40
45803;DHT22;31504;51.716;9.184;2023-09-30T12:06:47;20.60;59.10
45803;DHT22;31504;51.716;9.184;2023-09-30T12:09:48;20.60;59.10
45803;DHT22;31504;51.716;9.184;2023-09-30T12:12:48;20.60;59.20
45803;DHT22;31504;51.716;9.184;2023-09-30T12:15:49;20.60;59.30
45803;DHT22;31504;51.716;9.184;2023-09-30T12:18:49;20.50;59.70
45803;DHT22;31504;51.716;9.184;2023-09-30T12:21:50;20.50;59.70
45803;DHT22;31504;51.716;9.184;2023-09-30T12:24:51;20.60;59.50
45803;DHT22;31504;51.716;9.184;2023-09-30T12:27:52;20.60;59.00
45803;DHT22;31504;51.716;9.184;2023-09-30T12:30:55;20.60;59.00
45803;DHT22;31504;51.716;9.184;2023-09-30T12:33:55;20.60;58.80
45803;DHT22;31504;51.716;9.184;2023-09-30T12:36:56;20.60;57.90
45803;DHT22;31504;51.716;9.184;2023-09-30T12:39:57;20.50;57.50
45803;DHT22;31504;51.716;9.184;2023-09-30T12:42:57;20.50;57.70
45803;DHT22;31504;51.716;9.184;2023-09-30T12:45:58;20.40;57.50
45803;DHT22;31504;51.716;9.184;2023-09-30T12:49:00;20.40;57.80
45803;DHT22;31504;51.716;9.184;2023-09-30T12:52:01;20.40;57.10
45803;DHT22;31504;51.716;9.184;2023-09-30T12:55:02;20.40;56.80
45803;DHT22;31504;51.716;9.184;2023-09-30T12:58:02;20.40;57.50
45803;DHT22;31504;51.716;9.184;2023-09-30T13:01:03;20.40;56.60
45803;DHT22;31504;51.716;9.184;2023-09-30T13:04:03;20.40;56.20
45803;DHT22;31504;51.716;9.184;2023-09-30T13:07:11;20.40;55.80
45803;DHT22;31504;51.716;9.184;2023-09-30T13:10:11;20.40;55.90
45803;DHT22;31504;51.716;9.184;2023-09-30T13:13:13;20.30;55.70
45803;DHT22;31504;51.716;9.184;2023-09-30T13:16:13;20.30;56.20
45803;DHT22;31504;51.716;9.184;2023-09-30T13:19:14;20.40;56.40
45803;DHT22;31504;51.716;9.184;2023-09-30T13:22:16;20.40;56.70
45803;DHT22;31504;51.716;9.184;2023-09-30T13:25:16;20.40;56.40
45803;DHT22;31504;51.716;9.184;2023-09-30T13:28:17;20.40;56.50
45803;DHT22;31504;51.716;9.184;2023-09-30T13:31:17;20.40;57.50
45803;DHT22;31504;51.716;9.184;2023-09-30T13:34:18;20.50;56.40
45803;DHT22;31504;51.716;9.184;2023-09-30T13:37:18;20.50;55.90
45803;DHT22;31504;51.716;9.184;2023-09-30T13:40:19;20.50;55.70
45803;DHT22;31504;51.716;9.184;2023-09-30T13:43:19;20.50;55.90
45803;DHT22;31504;51.716;9.184;2023-09-30T13:46:20;20.50;55.80
45803;DHT22;31504;51.716;9.184;2023-09-30T13:49:24;20.50;56.10
45803;DHT22;31504;51.716;9.184;2023-09-30T13:52:25;20.50;56.30
45803;DHT22;31504;51.716;9.184;2023-09-30T13:55:25;20.50;56.70
45803;DHT22;31504;51.716;9.184;2023-09-30T13:58:26;20.50;56.70
45803;DHT22;31504;51.716;9.184;2023-09-30T14:01:27;20.50;56.80
45803;DHT22;31504;51.716;9.184;2023-09-30T14:04:29;20.50;56.80
45803;DHT22;31504;51.716;9.184;2023-09-30T14:07:29;20.60;56.90
45803;DHT22;31504;51.716;9.184;2023-09-30T14:10:30;20.60;57.00
45803;DHT22;31504;51.716;9.184;2023-09-30T14:13:30;20.60;56.30
45803;DHT22;31504;51.716;9.184;2023-09-30T14:16:31;20.50;56.30
45803;DHT22;31504;51.716;9.184;2023-09-30T14:19:31;20.60;56.70
45803;DHT22;31504;51.716;9.184;2023-09-30T14:22:32;20.60;56.80
45803;DHT22;31504;51.716;9.184;2023-09-30T14:25:32;20.60;56.50
45803;DHT22;31504;51.716;9.184;2023-09-30T14:28:33;20.60;56.60
45803;DHT22;31504;51.716;9.184;2023-09-30T14:31:33;20.60;56.40
45803;DHT22;31504;51.716;9.184;2023-09-30T14:34:34;20.50;55.90
45803;DHT22;31504;51.716;9.184;2023-09-30T14:37:37;20.60;56.20
45803;DHT22;31504;51.716;9.184;2023-09-30T14:40:37;20.50;56.00
45803;DHT22;31504;51.716;9.184;2023-09-30T14:43:41;20.50;55.90
45803;DHT22;31504;51.716;9.184;2023-09-30T14:46:41;20.50;55.30
45803;DHT22;31504;51.716;9.184;2023-09-30T14:49:43;20.50;55.40
45803;DHT22;31504;51.716;9.184;2023-09-30T14:52:43;20.50;55.60
45803;DHT22;31504;51.716;9.184;2023-09-30T14:55:44;20.50;55.70
45803;DHT22;31504;51.716;9.184;2023-09-30T14:58:45;20.50;55.70
45803;DHT22;31504;51.716;9.184;2023-09-30T15:01:45;20.50;55.30
45803;DHT22;31504;51.716;9.184;2023-09-30T15:04:46;20.50;55.20
45803;DHT22;31504;51.716;9.184;2023-09-30T15:07:46;20.50;55.40
45803;DHT22;31504;51.716;9.184;2023-09-30T15:10:47;20.50;55.20
45803;DHT22;31504;51.716;9.184;2023-09-30T15:13:47;20.50;55.10
45803;DHT22;31504;51.716;9.184;2023-09-30T15:16:48;20.50;54.70
45803;DHT22;31504;51.716;9.184;2023-09-30T15:19:48;20.50;54.70
45803;DHT22;31504;51.716;9.184;2023-09-30T15:22:49;20.50;54.30
45803;DHT22;31504;51.716;9.184;2023-09-30T15:25:49;20.50;54.70
45803;DHT22;31504;51.716;9.184;2023-09-30T15:28:50;20.50;54.00
45803;DHT22;31504;51.716;9.184;2023-09-30T15:31:51;20.50;54.10
45803;DHT22;31504;51.716;9.184;2023-09-30T15:34:52;20.50;54.40
45803;DHT22;31504;51.716;9.184;2023-09-30T15:37:52;20.50;54.50
45803;DHT22;31504;51.716;9.184;2023-09-30T15:40:56;20.50;53.90
45803;DHT22;31504;51.716;9.184;2023-09-30T15:44:03;20.40;53.00
45803;DHT22;31504;51.716;9.184;2023-09-30T15:47:07;20.40;53.30
45803;DHT22;31504;51.716;9.184;2023-09-30T15:50:08;20.50;53.50
45803;DHT22;31504;51.716;9.184;2023-09-30T15:53:09;20.50;53.40
45803;DHT22;31504;51.716;9.184;2023-09-30T15:56:09;20.50;53.70
45803;DHT22;31504;51.716;9.184;2023-09-30T15:59:12;20.50;53.90
45803;DHT22;31504;51.716;9.184;2023-09-30T16:02:14;20.60;54.10
45803;DHT22;31504;51.716;9.184;2023-09-30T16:05:14;20.60;54.50
45803;DHT22;31504;51.716;9.184;2023-09-30T16:08:15;20.60;55.00
45803;DHT22;31504;51.716;9.184;2023-09-30T16:11:15;20.60;55.40
45803;DHT22;31504;51.716;9.184;2023-09-30T16:14:18;20.60;55.80
45803;DHT22;31504;51.716;9.184;2023-09-30T16:17:19;20.60;56.40
45803;DHT22;31504;51.716;9.184;2023-09-30T16:20:20;20.60;56.80
45803;DHT22;31504;51.716;9.184;2023-09-30T16:23:25;20.60;57.10
45803;DHT22;31504;51.716;9.184;2023-09-30T16:26:25;20.60;57.50
45803;DHT22;31504;51.716;9.184;2023-09-30T16:29:26;20.60;57.70
45803;DHT22;31504;51.716;9.184;2023-09-30T16:32:26;20.60;58.00
45803;DHT22;31504;51.716;9.184;2023-09-30T16:35:27;20.60;58.20
45803;DHT22;31504;51.716;9.184;2023-09-30T16:38:27;20.60;58.40
45803;DHT22;31504;51.716;9.184;2023-09-30T16:41:28;20.60;58.60
45803;DHT22;31504;51.716;9.184;2023-09-30T16:44:29;20.60;58.70
45803;DHT22;31504;51.716;9.184;2023-09-30T16:47:29;20.60;59.20
45803;DHT22;31504;51.716;9.184;2023-09-30T16:50:30;20.60;59.30
45803;DHT22;31504;51.716;9.184;2023-09-30T16:53:30;20.60;59.60
45803;DHT22;31504;51.716;9.184;2023-09-30T16:56:30;20.60;60.00
45803;DHT22;31504;51.716;9.184;2023-09-30T16:59:31;20.60;60.30
45803;DHT22;31504;51.716;9.184;2023-09-30T17:02:32;20.60;60.40
45803;DHT22;31504;51.716;9.184;2023-09-30T17:05:39;20.60;60.40
45803;DHT22;31504;51.716;9.184;2023-09-30T17:08:41;20.60;60.80
45803;DHT22;31504;51.716;9.184;2023-09-30T17:11:42;20.50;60.90
45803;DHT22;31504;51.716;9.184;2023-09-30T17:14:43;20.40;60.90
45803;DHT22;31504;51.716;9.184;2023-09-30T17:17:43;20.50;60.90
45803;DHT22;31504;51.716;9.184;2023-09-30T17:20:44;20.50;61.10
45803;DHT22;31504;51.716;9.184;2023-09-30T17:23:47;20.50;61.10
45803;DHT22;31504;51.716;9.184;2023-09-30T17:26:48;20.50;61.30
45803;DHT22;31504;51.716;9.184;2023-09-30T17:29:48;20.40;61.40
45803;DHT22;31504;51.716;9.184;2023-09-30T17:32:49;20.40;61.60
45803;DHT22;31504;51.716;9.184;2023-09-30T17:35:50;20.40;61.70
45803;DHT22;31504;51.716;9.184;2023-09-30T17:38:50;20.40;61.60
45803;DHT22;31504;51.716;9.184;2023-09-30T17:41:51;20.40;61.80
45803;DHT22;31504;51.716;9.184;2023-09-30T17:44:52;20.50;62.20
45803;DHT22;31504;51.716;9.184;2023-09-30T17:47:52;20.50;62.30
45803;DHT22;31504;51.716;9.184;2023-09-30T17:50:52;20.60;62.40
45803;DHT22;31504;51.716;9.184;2023-09-30T17:53:53;20.60;62.40
45803;DHT22;31504;51.716;9.184;2023-09-30T17:56:53;20.70;62.50
45803;DHT22;31504;51.716;9.184;2023-09-30T17:59:54;20.70;62.70
45803;DHT22;31504;51.716;9.184;2023-09-30T18:02:54;20.70;62.70
45803;DHT22;31504;51.716;9.184;2023-09-30T18:06:03;20.70;62.80
45803;DHT22;31504;51.716;9.184;2023-09-30T18:09:04;20.70;62.80
45803;DHT22;31504;51.716;9.184;2023-09-30T18:12:04;20.70;62.80
45803;DHT22;31504;51.716;9.184;2023-09-30T18:15:05;20.70;62.90
45803;DHT22;31504;51.716;9.184;2023-09-30T18:18:06;20.70;62.90
45803;DHT22;31504;51.716;9.184;2023-09-30T18:21:08;20.70;63.00
45803;DHT22;31504;51.716;9.184;2023-09-30T18:24:10;20.70;63.10
45803;DHT22;31504;51.716;9.184;2023-09-30T18:27:11;20.70;63.10
45803;DHT22;31504;51.716;9.184;2023-09-30T18:30:11;20.70;63.10
45803;DHT22;31504;51.716;9.184;2023-09-30T18:33:12;20.80;63.20
45803;DHT22;31504;51.716;9.184;2023-09-30T18:36:16;20.80;63.40
45803;DHT22;31504;51.716;9.184;2023-09-30T18:39:16;20.80;63.30
45803;DHT22;31504;51.716;9.184;2023-09-30T18:42:18;20.80;63.30
45803;DHT22;31504;51.716;9.184;2023-09-30T18:45:18;20.80;63.30
45803;DHT22;31504;51.716;9.184;2023-09-30T18:48:18;20.80;63.20
45803;DHT22;31504;51.716;9.184;2023-09-30T18:51:19;20.80;63.20
45803;DHT22;31504;51.716;9.184;2023-09-30T18:54:20;20.80;63.10
45803;DHT22;31504;51.716;9.184;2023-09-30T18:57:20;20.80;63.00
45803;DHT22;31504;51.716;9.184;2023-09-30T19:00:21;20.70;62.80
45803;DHT22;31504;51.716;9.184;2023-09-30T19:03:21;20.70;62.80
45803;DHT22;31504;51.716;9.184;2023-09-30T19:06:22;20.70;62.90
45803;DHT22;31504;51.716;9.184;2023-09-30T19:09:22;20.70;62.90
45803;DHT22;31504;51.716;9.184;2023-09-30T19:12:22;20.80;63.00
45803;DHT22;31504;51.716;9.184;2023-09-30T19:15:23;20.70;63.00
45803;DHT22;31504;51.716;9.184;2023-09-30T19:18:26;20.80;63.00
45803;DHT22;31504;51.716;9.184;2023-09-30T19:21:28;20.80;63.10
45803;DHT22;31504;51.716;9.184;2023-09-30T19:24:29;20.80;63.00